QJE663 YBTH-YSSY
Flight info
| Callsign | QJE663 |
|---|---|
| Flight time | 0h 24m |
| Altitude | 13000 |
| Route | KADOM DCT BOOGI |
| Aircraft | B462/M-SDFGIRWY/LB1 |
Departure
| Time | 2026-05-06 04:48 |
|---|---|
| Airport | Bathurst Airport (YBTH) |
Arrival
| Time | 2026-05-06 05:12 |
|---|---|
| Airport | Sydney Kingsford Smith International Airport (YSSY) |
| Time | Latitude | Longitude | Altitude | Speed | Heading |
|---|---|---|---|---|---|
| 2026-05-06 04:37 | -33.41349 | 149.65461 | 2435 ft | 0 kts | 186° |
| 2026-05-06 04:43 | -33.41350 | 149.65461 | 2446 ft | 0 kts | 186° |
| 2026-05-06 04:43 | -33.41355 | 149.65460 | 2442 ft | 0 kts | 188° |
| 2026-05-06 04:44 | -33.41358 | 149.65452 | 2429 ft | 1 kts | 272° |
| 2026-05-06 04:44 | -33.41356 | 149.65425 | 2433 ft | 3 kts | 277° |
| 2026-05-06 04:44 | -33.41354 | 149.65405 | 2435 ft | 5 kts | 279° |
| 2026-05-06 04:45 | -33.41347 | 149.65356 | 2433 ft | 7 kts | 278° |
| 2026-05-06 04:45 | -33.41342 | 149.65314 | 2434 ft | 5 kts | 279° |
| 2026-05-06 04:45 | -33.41333 | 149.65252 | 2430 ft | 9 kts | 280° |
| 2026-05-06 04:45 | -33.41327 | 149.65189 | 2431 ft | 6 kts | 243° |
| 2026-05-06 04:46 | -33.41352 | 149.65172 | 2433 ft | 5 kts | 185° |
| 2026-05-06 04:46 | -33.41407 | 149.65175 | 2437 ft | 11 kts | 176° |
| 2026-05-06 04:46 | -33.41510 | 149.65183 | 2442 ft | 16 kts | 177° |
| 2026-05-06 04:46 | -33.41580 | 149.65198 | 2444 ft | 4 kts | 160° |
| 2026-05-06 04:47 | -33.41585 | 149.65192 | 2449 ft | 2 kts | 271° |
| 2026-05-06 04:47 | -33.41577 | 149.65188 | 2443 ft | 0 kts | 351° |
| 2026-05-06 04:47 | -33.41567 | 149.65187 | 2445 ft | 9 kts | 355° |
| 2026-05-06 04:47 | -33.41213 | 149.65159 | 2424 ft | 92 kts | 356° |
| 2026-05-06 04:48 | -33.40383 | 149.65092 | 2601 ft | 132 kts | 356° |
| 2026-05-06 04:48 | -33.39454 | 149.65046 | 3166 ft | 134 kts | 357° |
| 2026-05-06 04:48 | -33.38509 | 149.64889 | 3674 ft | 141 kts | 333° |
| 2026-05-06 04:48 | -33.37944 | 149.63941 | 4115 ft | 152 kts | 277° |
| 2026-05-06 04:49 | -33.38325 | 149.62703 | 4469 ft | 178 kts | 231° |
| 2026-05-06 04:49 | -33.39358 | 149.61933 | 5148 ft | 177 kts | 193° |
| 2026-05-06 04:49 | -33.40537 | 149.62163 | 5856 ft | 177 kts | 148° |
| 2026-05-06 04:49 | -33.41326 | 149.63291 | 6461 ft | 180 kts | 118° |
| 2026-05-06 04:50 | -33.41900 | 149.64624 | 7069 ft | 181 kts | 115° |
| 2026-05-06 04:50 | -33.42453 | 149.66063 | 7447 ft | 204 kts | 113° |
| 2026-05-06 04:50 | -33.43079 | 149.67760 | 7695 ft | 241 kts | 113° |
| 2026-05-06 04:50 | -33.43806 | 149.69684 | 8309 ft | 255 kts | 115° |
| 2026-05-06 04:51 | -33.44551 | 149.71553 | 9445 ft | 253 kts | 116° |
| 2026-05-06 04:51 | -33.45343 | 149.73464 | 10285 ft | 260 kts | 117° |
| 2026-05-06 04:51 | -33.46175 | 149.75403 | 11091 ft | 264 kts | 117° |
| 2026-05-06 04:51 | -33.47047 | 149.77362 | 11904 ft | 269 kts | 118° |
| 2026-05-06 04:52 | -33.47950 | 149.79358 | 12576 ft | 280 kts | 118° |
| 2026-05-06 04:52 | -33.48921 | 149.81484 | 12907 ft | 304 kts | 118° |
| 2026-05-06 04:52 | -33.49985 | 149.83802 | 13058 ft | 330 kts | 119° |
| 2026-05-06 04:52 | -33.51127 | 149.86280 | 13129 ft | 352 kts | 119° |
| 2026-05-06 04:53 | -33.52346 | 149.88908 | 13147 ft | 368 kts | 119° |
| 2026-05-06 04:53 | -33.53583 | 149.91579 | 13144 ft | 368 kts | 119° |
| 2026-05-06 04:53 | -33.54800 | 149.94243 | 13134 ft | 370 kts | 118° |
| 2026-05-06 04:53 | -33.56032 | 149.96974 | 13125 ft | 373 kts | 118° |
| 2026-05-06 04:54 | -33.57254 | 149.99690 | 13118 ft | 366 kts | 118° |
| 2026-05-06 04:54 | -33.58462 | 150.02365 | 13105 ft | 364 kts | 118° |
| 2026-05-06 04:54 | -33.59670 | 150.05029 | 13112 ft | 363 kts | 119° |
| 2026-05-06 04:54 | -33.60888 | 150.07671 | 13115 ft | 362 kts | 119° |
| 2026-05-06 04:55 | -33.62109 | 150.10312 | 13102 ft | 362 kts | 119° |
| 2026-05-06 04:55 | -33.63315 | 150.12961 | 13066 ft | 361 kts | 118° |
| 2026-05-06 04:55 | -33.64495 | 150.15572 | 13078 ft | 360 kts | 118° |
| 2026-05-06 04:55 | -33.65679 | 150.18203 | 13077 ft | 353 kts | 118° |
| 2026-05-06 04:56 | -33.66856 | 150.20818 | 12205 ft | 360 kts | 118° |
| 2026-05-06 04:56 | -33.68048 | 150.23466 | 11655 ft | 358 kts | 118° |
| 2026-05-06 04:56 | -33.69210 | 150.26049 | 11309 ft | 345 kts | 118° |
| 2026-05-06 04:56 | -33.70325 | 150.28532 | 10977 ft | 332 kts | 118° |
| 2026-05-06 04:57 | -33.71407 | 150.30937 | 10632 ft | 322 kts | 118° |
| 2026-05-06 04:57 | -33.72457 | 150.33276 | 10305 ft | 314 kts | 118° |
| 2026-05-06 04:57 | -33.73476 | 150.35562 | 9943 ft | 307 kts | 117° |
| 2026-05-06 04:57 | -33.74456 | 150.37807 | 9581 ft | 301 kts | 118° |
| 2026-05-06 04:58 | -33.75458 | 150.39989 | 9203 ft | 295 kts | 119° |
| 2026-05-06 04:58 | -33.76442 | 150.42135 | 8827 ft | 291 kts | 119° |
| 2026-05-06 04:58 | -33.77345 | 150.44248 | 8477 ft | 286 kts | 109° |
| 2026-05-06 04:58 | -33.77543 | 150.46570 | 8197 ft | 278 kts | 78° |
| 2026-05-06 04:59 | -33.77080 | 150.48792 | 8093 ft | 271 kts | 73° |
| 2026-05-06 04:59 | -33.76579 | 150.50945 | 8030 ft | 264 kts | 72° |
| 2026-05-06 04:59 | -33.76066 | 150.53031 | 8007 ft | 259 kts | 71° |
| 2026-05-06 04:59 | -33.75540 | 150.55098 | 7995 ft | 258 kts | 71° |
| 2026-05-06 05:00 | -33.75007 | 150.57146 | 7980 ft | 256 kts | 71° |
| 2026-05-06 05:00 | -33.74476 | 150.59185 | 7976 ft | 255 kts | 71° |
| 2026-05-06 05:00 | -33.73939 | 150.61236 | 7984 ft | 263 kts | 71° |
| 2026-05-06 05:00 | -33.73370 | 150.63370 | 7999 ft | 273 kts | 71° |
| 2026-05-06 05:01 | -33.72791 | 150.65530 | 8010 ft | 277 kts | 71° |
| 2026-05-06 05:01 | -33.72202 | 150.67726 | 7823 ft | 276 kts | 71° |
| 2026-05-06 05:01 | -33.71614 | 150.69921 | 7637 ft | 275 kts | 71° |
| 2026-05-06 05:01 | -33.71029 | 150.72100 | 7436 ft | 274 kts | 71° |
| 2026-05-06 05:02 | -33.70446 | 150.74267 | 7060 ft | 272 kts | 71° |
| 2026-05-06 05:02 | -33.69866 | 150.76444 | 6656 ft | 276 kts | 71° |
| 2026-05-06 05:02 | -33.69283 | 150.78666 | 6242 ft | 282 kts | 71° |
| 2026-05-06 05:02 | -33.68690 | 150.80925 | 5826 ft | 286 kts | 71° |
| 2026-05-06 05:03 | -33.68089 | 150.83210 | 5410 ft | 286 kts | 71° |
| 2026-05-06 05:03 | -33.67519 | 150.85392 | 5167 ft | 273 kts | 71° |
| 2026-05-06 05:03 | -33.66963 | 150.87519 | 5054 ft | 262 kts | 71° |
| 2026-05-06 05:03 | -33.66431 | 150.89562 | 5002 ft | 253 kts | 71° |
| 2026-05-06 05:04 | -33.65914 | 150.91553 | 4945 ft | 245 kts | 71° |
| 2026-05-06 05:04 | -33.65404 | 150.93519 | 4522 ft | 251 kts | 71° |
| 2026-05-06 05:04 | -33.64876 | 150.95551 | 4066 ft | 259 kts | 71° |
| 2026-05-06 05:04 | -33.64376 | 150.97655 | 3609 ft | 265 kts | 80° |
| 2026-05-06 05:05 | -33.64575 | 150.99840 | 3290 ft | 266 kts | 112° |
| 2026-05-06 05:05 | -33.65610 | 151.01639 | 3156 ft | 260 kts | 130° |
| 2026-05-06 05:05 | -33.66789 | 151.03274 | 3070 ft | 258 kts | 129° |
| 2026-05-06 05:05 | -33.67966 | 151.04877 | 3035 ft | 255 kts | 131° |
| 2026-05-06 05:06 | -33.69146 | 151.06447 | 2999 ft | 252 kts | 131° |
| 2026-05-06 05:06 | -33.70306 | 151.07962 | 2982 ft | 248 kts | 132° |
| 2026-05-06 05:06 | -33.71465 | 151.09469 | 2982 ft | 241 kts | 132° |
| 2026-05-06 05:06 | -33.72702 | 151.10716 | 2981 ft | 227 kts | 155° |
| 2026-05-06 05:07 | -33.74161 | 151.11373 | 2980 ft | 224 kts | 160° |
| 2026-05-06 05:07 | -33.75616 | 151.12027 | 2987 ft | 220 kts | 160° |
| 2026-05-06 05:07 | -33.76987 | 151.12621 | 3050 ft | 197 kts | 161° |
| 2026-05-06 05:07 | -33.78211 | 151.13132 | 2966 ft | 182 kts | 161° |
| 2026-05-06 05:08 | -33.79389 | 151.13601 | 2812 ft | 179 kts | 163° |
| 2026-05-06 05:08 | -33.80596 | 151.13999 | 2550 ft | 180 kts | 167° |
| 2026-05-06 05:08 | -33.81747 | 151.14289 | 2316 ft | 163 kts | 169° |
| 2026-05-06 05:08 | -33.82821 | 151.14543 | 2099 ft | 152 kts | 168° |
| 2026-05-06 05:09 | -33.83828 | 151.14787 | 1894 ft | 143 kts | 167° |
| 2026-05-06 05:09 | -33.84784 | 151.15029 | 1710 ft | 138 kts | 167° |
| 2026-05-06 05:09 | -33.85689 | 151.15268 | 1543 ft | 128 kts | 167° |
| 2026-05-06 05:09 | -33.86545 | 151.15493 | 1366 ft | 125 kts | 166° |
| 2026-05-06 05:10 | -33.87393 | 151.15708 | 1171 ft | 125 kts | 167° |
| 2026-05-06 05:10 | -33.88243 | 151.15928 | 991 ft | 124 kts | 165° |
| 2026-05-06 05:10 | -33.89074 | 151.16146 | 810 ft | 121 kts | 166° |
| 2026-05-06 05:10 | -33.89892 | 151.16354 | 638 ft | 118 kts | 166° |
| 2026-05-06 05:11 | -33.90688 | 151.16562 | 511 ft | 116 kts | 165° |
| 2026-05-06 05:11 | -33.91474 | 151.16764 | 395 ft | 118 kts | 165° |
| 2026-05-06 05:11 | -33.92291 | 151.16983 | 244 ft | 122 kts | 164° |
| 2026-05-06 05:11 | -33.93113 | 151.17201 | 60 ft | 119 kts | 165° |
| 2026-05-06 05:12 | -33.93842 | 151.17394 | 26 ft | 89 kts | 168° |
| 2026-05-06 05:12 | -33.94237 | 151.17506 | 30 ft | 37 kts | 161° |
| 2026-05-06 05:12 | -33.94361 | 151.17581 | 30 ft | 14 kts | 130° |
| 2026-05-06 05:12 | -33.94363 | 151.17656 | 29 ft | 2 kts | 75° |
| 2026-05-06 05:13 | -33.94362 | 151.17662 | 29 ft | 0 kts | 75° |
| 2026-05-06 05:13 | -33.94362 | 151.17663 | 29 ft | 1 kts | 75° |
| 2026-05-06 05:13 | -33.94332 | 151.17715 | 29 ft | 15 kts | 30° |
| 2026-05-06 05:13 | -33.94225 | 151.17702 | 29 ft | 16 kts | 346° |
| 2026-05-06 05:14 | -33.94125 | 151.17672 | 28 ft | 17 kts | 346° |
| 2026-05-06 05:14 | -33.94002 | 151.17637 | 28 ft | 19 kts | 347° |
| 2026-05-06 05:14 | -33.93841 | 151.17595 | 29 ft | 28 kts | 348° |
| 2026-05-06 05:14 | -33.93644 | 151.17545 | 28 ft | 28 kts | 348° |
| 2026-05-06 05:15 | -33.93462 | 151.17501 | 29 ft | 25 kts | 358° |
| 2026-05-06 05:15 | -33.93297 | 151.17482 | 29 ft | 23 kts | 347° |
| 2026-05-06 05:15 | -33.93150 | 151.17443 | 30 ft | 21 kts | 348° |
| 2026-05-06 05:15 | -33.93061 | 151.17420 | 30 ft | 19 kts | 348° |
| 2026-05-06 05:16 | -33.92982 | 151.17455 | 30 ft | 13 kts | 90° |
| 2026-05-06 05:16 | -33.93013 | 151.17639 | 30 ft | 19 kts | 101° |
| 2026-05-06 05:16 | -33.93047 | 151.17738 | 30 ft | 21 kts | 117° |
| 2026-05-06 05:16 | -33.93076 | 151.17899 | 30 ft | 19 kts | 100° |
| 2026-05-06 05:17 | -33.93105 | 151.18099 | 30 ft | 12 kts | 92° |
| 2026-05-06 05:17 | -33.93087 | 151.18156 | 30 ft | 9 kts | 53° |
| 2026-05-06 05:17 | -33.93062 | 151.18176 | 30 ft | 2 kts | 18° |
| 2026-05-06 05:17 | -33.93047 | 151.18185 | 30 ft | 4 kts | 54° |
| 2026-05-06 05:18 | -33.93060 | 151.18210 | 30 ft | 4 kts | 143° |
| 2026-05-06 05:18 | -33.93077 | 151.18230 | 30 ft | 0 kts | 135° |
| 2026-05-06 05:18 | -33.93082 | 151.18236 | 30 ft | 0 kts | 135° |